sensor_id;sensor_type;location;lat;lon;timestamp;pressure;altitude;pressure_sealevel;temperature;humidity
61035;BME280;46916;40.564;-7.958;2023-03-23T00:00:40;97386.19;;;12.14;80.93
61035;BME280;46916;40.564;-7.958;2023-03-23T00:02:41;97386.19;;;12.14;81.19
61035;BME280;46916;40.564;-7.958;2023-03-23T00:04:41;97380.66;;;12.18;81.02
61035;BME280;46916;40.564;-7.958;2023-03-23T00:06:43;97377.06;;;12.19;81.06
61035;BME280;46916;40.564;-7.958;2023-03-23T00:08:48;97381.50;;;12.18;81.14
61035;BME280;46916;40.564;-7.958;2023-03-23T00:10:50;97394.06;;;12.14;81.53
61035;BME280;46916;40.564;-7.958;2023-03-23T00:12:57;97397.78;;;12.12;81.70
61035;BME280;46916;40.564;-7.958;2023-03-23T00:15:06;97410.91;;;12.12;81.84
61035;BME280;46916;40.564;-7.958;2023-03-23T00:17:09;97414.41;;;12.12;82.17
61035;BME280;46916;40.564;-7.958;2023-03-23T00:19:11;97414.53;;;12.11;82.13
61035;BME280;46916;40.564;-7.958;2023-03-23T00:21:15;97413.69;;;12.10;81.95
61035;BME280;46916;40.564;-7.958;2023-03-23T00:23:20;97405.00;;;12.10;81.80
61035;BME280;46916;40.564;-7.958;2023-03-23T00:25:23;97405.25;;;12.07;81.31
61035;BME280;46916;40.564;-7.958;2023-03-23T00:27:23;97403.78;;;12.04;81.02
61035;BME280;46916;40.564;-7.958;2023-03-23T00:29:24;97387.31;;;12.02;80.99
61035;BME280;46916;40.564;-7.958;2023-03-23T00:31:26;97386.50;;;12.02;81.03
61035;BME280;46916;40.564;-7.958;2023-03-23T00:33:35;97385.78;;;12.00;81.23
61035;BME280;46916;40.564;-7.958;2023-03-23T00:35:39;97379.03;;;11.97;81.05
61035;BME280;46916;40.564;-7.958;2023-03-23T00:37:41;97375.72;;;11.95;81.22
61035;BME280;46916;40.564;-7.958;2023-03-23T00:39:41;97380.13;;;11.95;81.16
61035;BME280;46916;40.564;-7.958;2023-03-23T00:41:46;97373.09;;;11.95;81.49
61035;BME280;46916;40.564;-7.958;2023-03-23T00:43:47;97373.22;;;11.94;81.42
61035;BME280;46916;40.564;-7.958;2023-03-23T00:45:48;97374.34;;;11.91;81.88
61035;BME280;46916;40.564;-7.958;2023-03-23T00:47:52;97372.69;;;11.90;81.69
61035;BME280;46916;40.564;-7.958;2023-03-23T00:49:53;97375.47;;;11.88;81.80
61035;BME280;46916;40.564;-7.958;2023-03-23T00:51:57;97368.69;;;11.86;82.18
61035;BME280;46916;40.564;-7.958;2023-03-23T00:53:58;97383.44;;;11.87;82.26
61035;BME280;46916;40.564;-7.958;2023-03-23T00:55:59;97375.56;;;11.87;82.40
61035;BME280;46916;40.564;-7.958;2023-03-23T00:58:00;97367.69;;;11.87;82.46
61035;BME280;46916;40.564;-7.958;2023-03-23T01:00:01;97370.06;;;11.90;82.29
61035;BME280;46916;40.564;-7.958;2023-03-23T01:02:02;97365.78;;;11.89;82.37
61035;BME280;46916;40.564;-7.958;2023-03-23T01:04:03;97356.94;;;11.90;82.47
61035;BME280;46916;40.564;-7.958;2023-03-23T01:06:09;97358.59;;;11.91;82.11
61035;BME280;46916;40.564;-7.958;2023-03-23T01:08:13;97352.38;;;11.92;82.18
61035;BME280;46916;40.564;-7.958;2023-03-23T01:10:15;97359.41;;;11.92;82.05
61035;BME280;46916;40.564;-7.958;2023-03-23T01:12:18;97360.13;;;11.94;82.15
61035;BME280;46916;40.564;-7.958;2023-03-23T01:14:20;97362.88;;;11.92;82.29
61035;BME280;46916;40.564;-7.958;2023-03-23T01:16:24;97357.91;;;11.89;82.38
61035;BME280;46916;40.564;-7.958;2023-03-23T01:18:24;97349.22;;;11.88;82.77
61035;BME280;46916;40.564;-7.958;2023-03-23T01:20:25;97353.63;;;11.88;82.80
61035;BME280;46916;40.564;-7.958;2023-03-23T01:22:32;97350.03;;;11.89;82.72
61035;BME280;46916;40.564;-7.958;2023-03-23T01:24:33;97358.59;;;11.91;82.80
61035;BME280;46916;40.564;-7.958;2023-03-23T01:26:33;97343.97;;;11.88;82.86
61035;BME280;46916;40.564;-7.958;2023-03-23T01:28:35;97343.97;;;11.88;82.66
61035;BME280;46916;40.564;-7.958;2023-03-23T01:30:37;97339.53;;;11.89;82.89
61035;BME280;46916;40.564;-7.958;2023-03-23T01:32:38;97336.53;;;11.84;83.33
61035;BME280;46916;40.564;-7.958;2023-03-23T01:34:40;97333.97;;;11.82;83.38
61035;BME280;46916;40.564;-7.958;2023-03-23T01:36:41;97327.78;;;11.83;83.34
61035;BME280;46916;40.564;-7.958;2023-03-23T01:38:43;97332.34;;;11.81;83.80
61035;BME280;46916;40.564;-7.958;2023-03-23T01:40:44;97322.94;;;11.79;83.60
61035;BME280;46916;40.564;-7.958;2023-03-23T01:42:46;97326.53;;;11.78;83.79
61035;BME280;46916;40.564;-7.958;2023-03-23T01:46:50;97303.63;;;11.80;84.48
61035;BME280;46916;40.564;-7.958;2023-03-23T01:48:51;97298.91;;;11.83;84.10
61035;BME280;46916;40.564;-7.958;2023-03-23T01:50:56;97296.19;;;11.85;84.14
61035;BME280;46916;40.564;-7.958;2023-03-23T01:53:01;97288.03;;;11.88;83.86
61035;BME280;46916;40.564;-7.958;2023-03-23T01:55:03;97283.72;;;11.87;84.06
61035;BME280;46916;40.564;-7.958;2023-03-23T01:57:07;97271.44;;;11.87;84.15
61035;BME280;46916;40.564;-7.958;2023-03-23T01:59:11;97273.22;;;11.87;83.89
61035;BME280;46916;40.564;-7.958;2023-03-23T02:01:15;97275.84;;;11.87;83.97
61035;BME280;46916;40.564;-7.958;2023-03-23T02:03:16;97274.91;;;11.88;83.67
61035;BME280;46916;40.564;-7.958;2023-03-23T02:05:31;97262.72;;;11.87;83.65
61035;BME280;46916;40.564;-7.958;2023-03-23T02:07:41;97257.50;;;11.87;83.28
61035;BME280;46916;40.564;-7.958;2023-03-23T02:09:42;97258.31;;;11.87;83.37
61035;BME280;46916;40.564;-7.958;2023-03-23T02:11:44;97267.16;;;11.86;83.16
61035;BME280;46916;40.564;-7.958;2023-03-23T02:13:47;97263.72;;;11.86;83.06
61035;BME280;46916;40.564;-7.958;2023-03-23T02:18:24;97252.53;;;11.84;83.46
61035;BME280;46916;40.564;-7.958;2023-03-23T02:28:08;97249.19;;;11.82;83.27
61035;BME280;46916;40.564;-7.958;2023-03-23T02:34:53;97234.44;;;11.81;83.32
61035;BME280;46916;40.564;-7.958;2023-03-23T02:37:03;97234.44;;;11.81;83.47
61035;BME280;46916;40.564;-7.958;2023-03-23T02:39:10;97230.44;;;11.77;83.99
61035;BME280;46916;40.564;-7.958;2023-03-23T02:41:13;97231.41;;;11.76;84.00
61035;BME280;46916;40.564;-7.958;2023-03-23T02:43:19;97230.44;;;11.77;84.27
61035;BME280;46916;40.564;-7.958;2023-03-23T02:45:21;97231.91;;;11.79;84.21
61035;BME280;46916;40.564;-7.958;2023-03-23T02:47:25;97229.19;;;11.81;83.82
61035;BME280;46916;40.564;-7.958;2023-03-23T02:49:29;97225.72;;;11.80;83.84
61035;BME280;46916;40.564;-7.958;2023-03-23T02:51:33;97225.19;;;11.77;84.00
61035;BME280;46916;40.564;-7.958;2023-03-23T02:53:36;97224.63;;;11.73;84.26
61035;BME280;46916;40.564;-7.958;2023-03-23T02:55:41;97229.06;;;11.73;84.09
61035;BME280;46916;40.564;-7.958;2023-03-23T02:57:47;97231.53;;;11.74;83.76
61035;BME280;46916;40.564;-7.958;2023-03-23T02:59:50;97226.44;;;11.73;83.74
61035;BME280;46916;40.564;-7.958;2023-03-23T03:02:14;97222.84;;;11.74;83.71
61035;BME280;46916;40.564;-7.958;2023-03-23T03:04:19;97218.56;;;11.73;83.30
61035;BME280;46916;40.564;-7.958;2023-03-23T03:09:03;97224.09;;;11.70;83.49
61035;BME280;46916;40.564;-7.958;2023-03-23T03:11:09;97221.75;;;11.66;83.73
61035;BME280;46916;40.564;-7.958;2023-03-23T03:13:25;97225.34;;;11.65;83.48
61035;BME280;46916;40.564;-7.958;2023-03-23T03:17:41;97209.75;;;11.64;83.42
61035;BME280;46916;40.564;-7.958;2023-03-23T03:19:48;97222.72;;;11.65;83.80
61035;BME280;46916;40.564;-7.958;2023-03-23T03:21:52;97210.41;;;11.66;83.62
61035;BME280;46916;40.564;-7.958;2023-03-23T03:24:01;97216.38;;;11.68;83.71
61035;BME280;46916;40.564;-7.958;2023-03-23T03:26:04;97215.25;;;11.71;83.88
61035;BME280;46916;40.564;-7.958;2023-03-23T03:28:18;97211.50;;;11.73;83.74
61035;BME280;46916;40.564;-7.958;2023-03-23T03:30:26;97208.75;;;11.75;83.62
61035;BME280;46916;40.564;-7.958;2023-03-23T03:32:34;97206.13;;;11.75;83.78
61035;BME280;46916;40.564;-7.958;2023-03-23T03:34:39;97214.81;;;11.75;83.67
61035;BME280;46916;40.564;-7.958;2023-03-23T03:36:40;97214.69;;;11.77;83.46
61035;BME280;46916;40.564;-7.958;2023-03-23T03:38:45;97220.06;;;11.75;83.30
61035;BME280;46916;40.564;-7.958;2023-03-23T03:40:48;97217.75;;;11.72;83.42
61035;BME280;46916;40.564;-7.958;2023-03-23T03:42:51;97202.44;;;11.68;83.57
61035;BME280;46916;40.564;-7.958;2023-03-23T03:44:51;97209.31;;;11.69;83.55
61035;BME280;46916;40.564;-7.958;2023-03-23T03:46:52;97206.97;;;11.65;83.84
61035;BME280;46916;40.564;-7.958;2023-03-23T03:48:53;97210.56;;;11.64;83.92
61035;BME280;46916;40.564;-7.958;2023-03-23T03:50:55;97204.94;;;11.59;83.71
61035;BME280;46916;40.564;-7.958;2023-03-23T03:52:57;97205.47;;;11.53;84.24
61035;BME280;46916;40.564;-7.958;2023-03-23T03:54:58;97205.09;;;11.48;84.70
61035;BME280;46916;40.564;-7.958;2023-03-23T03:57:00;97211.97;;;11.49;84.21
61035;BME280;46916;40.564;-7.958;2023-03-23T03:59:24;97209.19;;;11.51;84.35
61035;BME280;46916;40.564;-7.958;2023-03-23T04:01:46;97211.00;;;11.50;83.84
61035;BME280;46916;40.564;-7.958;2023-03-23T04:03:47;97208.09;;;11.53;84.07
61035;BME280;46916;40.564;-7.958;2023-03-23T04:05:55;97208.53;;;11.49;84.14
61035;BME280;46916;40.564;-7.958;2023-03-23T04:07:56;97203.28;;;11.49;84.06
61035;BME280;46916;40.564;-7.958;2023-03-23T04:10:08;97197.06;;;11.50;83.79
61035;BME280;46916;40.564;-7.958;2023-03-23T04:12:11;97198.88;;;11.49;83.76
61035;BME280;46916;40.564;-7.958;2023-03-23T04:14:29;97200.38;;;11.42;84.33
61035;BME280;46916;40.564;-7.958;2023-03-23T04:16:30;97194.59;;;11.38;84.19
61035;BME280;46916;40.564;-7.958;2023-03-23T04:18:32;97194.59;;;11.38;84.71
61035;BME280;46916;40.564;-7.958;2023-03-23T04:20:34;97192.53;;;11.42;84.67
61035;BME280;46916;40.564;-7.958;2023-03-23T04:22:36;97185.09;;;11.47;84.47
61035;BME280;46916;40.564;-7.958;2023-03-23T04:24:37;97178.31;;;11.45;84.44
61035;BME280;46916;40.564;-7.958;2023-03-23T04:26:41;97186.34;;;11.43;84.40
61035;BME280;46916;40.564;-7.958;2023-03-23T04:28:55;97178.31;;;11.45;84.26
61035;BME280;46916;40.564;-7.958;2023-03-23T04:31:08;97186.72;;;11.48;84.35
61035;BME280;46916;40.564;-7.958;2023-03-23T04:33:11;97184.78;;;11.50;84.04
61035;BME280;46916;40.564;-7.958;2023-03-23T04:35:20;97178.84;;;11.48;84.23
61035;BME280;46916;40.564;-7.958;2023-03-23T04:37:28;97186.03;;;11.46;84.25
61035;BME280;46916;40.564;-7.958;2023-03-23T04:39:34;97181.91;;;11.44;84.45
61035;BME280;46916;40.564;-7.958;2023-03-23T04:41:38;97187.00;;;11.45;84.63
61035;BME280;46916;40.564;-7.958;2023-03-23T04:43:58;97186.72;;;11.48;84.29
61035;BME280;46916;40.564;-7.958;2023-03-23T04:46:15;97187.41;;;11.50;84.50
61035;BME280;46916;40.564;-7.958;2023-03-23T04:48:18;97184.94;;;11.49;84.51
61035;BME280;46916;40.564;-7.958;2023-03-23T04:50:33;97184.94;;;11.49;84.53
61035;BME280;46916;40.564;-7.958;2023-03-23T04:52:42;97182.31;;;11.49;85.05
61035;BME280;46916;40.564;-7.958;2023-03-23T04:54:45;97190.84;;;11.51;84.88
61035;BME280;46916;40.564;-7.958;2023-03-23T04:56:46;97195.97;;;11.52;84.49
61035;BME280;46916;40.564;-7.958;2023-03-23T04:58:49;97190.72;;;11.52;84.83
61035;BME280;46916;40.564;-7.958;2023-03-23T05:01:18;97189.75;;;11.53;84.78
61035;BME280;46916;40.564;-7.958;2023-03-23T05:03:29;97192.22;;;11.55;84.45
61035;BME280;46916;40.564;-7.958;2023-03-23T05:05:31;97193.06;;;11.55;84.62
61035;BME280;46916;40.564;-7.958;2023-03-23T05:07:38;97197.34;;;11.56;84.56
61035;BME280;46916;40.564;-7.958;2023-03-23T05:09:39;97198.31;;;11.55;84.71
61035;BME280;46916;40.564;-7.958;2023-03-23T05:11:41;97194.84;;;11.55;84.77
61035;BME280;46916;40.564;-7.958;2023-03-23T05:13:42;97197.34;;;11.56;84.76
61035;BME280;46916;40.564;-7.958;2023-03-23T05:15:46;97198.16;;;11.57;84.88
61035;BME280;46916;40.564;-7.958;2023-03-23T05:17:47;97201.75;;;11.56;84.66
61035;BME280;46916;40.564;-7.958;2023-03-23T05:19:53;97196.63;;;11.54;84.66
61035;BME280;46916;40.564;-7.958;2023-03-23T05:22:23;97199.25;;;11.54;84.22
61035;BME280;46916;40.564;-7.958;2023-03-23T05:24:25;97198.72;;;11.51;84.58
61035;BME280;46916;40.564;-7.958;2023-03-23T05:26:26;97200.66;;;11.49;84.19
61035;BME280;46916;40.564;-7.958;2023-03-23T05:28:32;97195.41;;;11.49;84.44
61035;BME280;46916;40.564;-7.958;2023-03-23T05:30:43;97196.41;;;11.48;84.40
61035;BME280;46916;40.564;-7.958;2023-03-23T05:32:48;97193.91;;;11.46;84.41
61035;BME280;46916;40.564;-7.958;2023-03-23T05:35:07;97192.94;;;11.47;84.78
61035;BME280;46916;40.564;-7.958;2023-03-23T05:37:09;97199.13;;;11.46;84.58
61035;BME280;46916;40.564;-7.958;2023-03-23T05:39:30;97201.91;;;11.45;84.26
61035;BME280;46916;40.564;-7.958;2023-03-23T05:41:55;97199.56;;;11.41;84.38
61035;BME280;46916;40.564;-7.958;2023-03-23T05:43:59;97190.06;;;11.40;84.62
61035;BME280;46916;40.564;-7.958;2023-03-23T05:46:22;97189.22;;;11.40;84.39
61035;BME280;46916;40.564;-7.958;2023-03-23T05:48:24;97181.47;;;11.38;84.67
61035;BME280;46916;40.564;-7.958;2023-03-23T05:50:25;97185.22;;;11.36;84.51
61035;BME280;46916;40.564;-7.958;2023-03-23T05:52:27;97185.50;;;11.33;84.88
61035;BME280;46916;40.564;-7.958;2023-03-23T05:54:28;97182.06;;;11.32;84.79
61035;BME280;46916;40.564;-7.958;2023-03-23T05:56:29;97180.25;;;11.33;85.07
61035;BME280;46916;40.564;-7.958;2023-03-23T05:58:54;97172.25;;;11.34;85.02
61035;BME280;46916;40.564;-7.958;2023-03-23T06:00:55;97180.25;;;11.33;85.02
61035;BME280;46916;40.564;-7.958;2023-03-23T06:03:02;97183.16;;;11.30;84.99
61035;BME280;46916;40.564;-7.958;2023-03-23T06:05:20;97185.78;;;11.30;84.78
61035;BME280;46916;40.564;-7.958;2023-03-23T06:07:25;97185.09;;;11.28;84.82
61035;BME280;46916;40.564;-7.958;2023-03-23T06:09:32;97188.56;;;11.28;85.10
61035;BME280;46916;40.564;-7.958;2023-03-23T06:11:39;97184.94;;;11.29;85.25
61035;BME280;46916;40.564;-7.958;2023-03-23T06:14:06;97193.53;;;11.31;84.93
61035;BME280;46916;40.564;-7.958;2023-03-23T06:16:08;97198.75;;;11.31;84.81
61035;BME280;46916;40.564;-7.958;2023-03-23T06:18:27;97205.09;;;11.29;85.02
61035;BME280;46916;40.564;-7.958;2023-03-23T06:20:39;97203.47;;;11.28;85.23
61035;BME280;46916;40.564;-7.958;2023-03-23T06:22:55;97205.25;;;11.27;85.20
61035;BME280;46916;40.564;-7.958;2023-03-23T06:25:03;97200.13;;;11.26;85.63
61035;BME280;46916;40.564;-7.958;2023-03-23T06:27:12;97202.34;;;11.21;85.52
61035;BME280;46916;40.564;-7.958;2023-03-23T06:29:16;97199.59;;;11.12;85.82
61035;BME280;46916;40.564;-7.958;2023-03-23T06:31:21;97192.97;;;11.08;86.37
61035;BME280;46916;40.564;-7.958;2023-03-23T06:33:23;97190.22;;;11.00;86.49
61035;BME280;46916;40.564;-7.958;2023-03-23T06:35:41;97196.84;;;10.95;86.61
61035;BME280;46916;40.564;-7.958;2023-03-23T06:37:50;97191.16;;;10.89;87.14
61035;BME280;46916;40.564;-7.958;2023-03-23T06:40:06;97200.16;;;10.87;87.01
61035;BME280;46916;40.564;-7.958;2023-03-23T06:42:15;97199.44;;;10.85;87.10
61035;BME280;46916;40.564;-7.958;2023-03-23T06:44:21;97194.91;;;10.87;87.36
61035;BME280;46916;40.564;-7.958;2023-03-23T06:46:22;97189.53;;;10.88;86.89
61035;BME280;46916;40.564;-7.958;2023-03-23T06:48:26;97189.41;;;10.90;86.73
61035;BME280;46916;40.564;-7.958;2023-03-23T06:50:27;97189.09;;;10.93;87.06
61035;BME280;46916;40.564;-7.958;2023-03-23T06:52:29;97194.91;;;10.97;86.53
61035;BME280;46916;40.564;-7.958;2023-03-23T06:54:30;97190.78;;;10.94;86.97
61035;BME280;46916;40.564;-7.958;2023-03-23T06:56:33;97199.88;;;10.90;87.06
61035;BME280;46916;40.564;-7.958;2023-03-23T06:58:35;97202.22;;;10.93;86.52
61035;BME280;46916;40.564;-7.958;2023-03-23T07:00:36;97199.06;;;10.99;86.64
61035;BME280;46916;40.564;-7.958;2023-03-23T07:02:37;97213.53;;;11.03;86.44
61035;BME280;46916;40.564;-7.958;2023-03-23T07:04:38;97215.75;;;11.08;86.04
61035;BME280;46916;40.564;-7.958;2023-03-23T07:06:44;97218.91;;;11.11;85.85
61035;BME280;46916;40.564;-7.958;2023-03-23T07:08:45;97220.28;;;11.15;86.03
61035;BME280;46916;40.564;-7.958;2023-03-23T07:10:53;97219.06;;;11.20;85.54
61035;BME280;46916;40.564;-7.958;2023-03-23T07:12:59;97223.06;;;11.24;85.81
61035;BME280;46916;40.564;-7.958;2023-03-23T07:15:04;97221.09;;;11.26;85.99
61035;BME280;46916;40.564;-7.958;2023-03-23T07:17:05;97222.63;;;11.28;85.66
61035;BME280;46916;40.564;-7.958;2023-03-23T07:19:12;97214.50;;;11.31;85.72
61035;BME280;46916;40.564;-7.958;2023-03-23T07:21:12;97219.44;;;11.34;85.52
61035;BME280;46916;40.564;-7.958;2023-03-23T07:23:14;97211.44;;;11.36;85.60
61035;BME280;46916;40.564;-7.958;2023-03-23T07:25:42;97231.19;;;11.40;85.69
61035;BME280;46916;40.564;-7.958;2023-03-23T07:27:47;97234.47;;;11.42;85.44
61035;BME280;46916;40.564;-7.958;2023-03-23T07:29:50;97233.38;;;11.45;85.53
61035;BME280;46916;40.564;-7.958;2023-03-23T07:31:56;97237.53;;;11.47;85.35
61035;BME280;46916;40.564;-7.958;2023-03-23T07:33:57;97234.91;;;11.47;85.93
61035;BME280;46916;40.564;-7.958;2023-03-23T07:36:05;97243.44;;;11.49;85.79
61035;BME280;46916;40.564;-7.958;2023-03-23T07:38:09;97251.16;;;11.51;86.09
61035;BME280;46916;40.564;-7.958;2023-03-23T07:40:12;97247.59;;;11.52;85.78
61035;BME280;46916;40.564;-7.958;2023-03-23T07:42:19;97247.59;;;11.52;85.86
61035;BME280;46916;40.564;-7.958;2023-03-23T07:44:29;97260.41;;;11.55;86.11
61035;BME280;46916;40.564;-7.958;2023-03-23T07:46:30;97257.66;;;11.56;85.72
61035;BME280;46916;40.564;-7.958;2023-03-23T07:48:49;97264.56;;;11.57;86.39
61035;BME280;46916;40.564;-7.958;2023-03-23T07:50:51;97263.59;;;11.58;86.31
61035;BME280;46916;40.564;-7.958;2023-03-23T07:52:56;97260.00;;;11.59;85.64
61035;BME280;46916;40.564;-7.958;2023-03-23T07:55:00;97254.06;;;11.57;85.39
61035;BME280;46916;40.564;-7.958;2023-03-23T07:57:22;97250.34;;;11.60;85.95
61035;BME280;46916;40.564;-7.958;2023-03-23T07:59:26;97241.66;;;11.59;86.13
61035;BME280;46916;40.564;-7.958;2023-03-23T08:01:29;97231.44;;;11.56;86.43
61035;BME280;46916;40.564;-7.958;2023-03-23T08:03:48;97224.13;;;11.50;87.06
61035;BME280;46916;40.564;-7.958;2023-03-23T08:06:21;97232.44;;;11.36;87.85
61035;BME280;46916;40.564;-7.958;2023-03-23T08:08:33;97228.28;;;11.33;87.56
61035;BME280;46916;40.564;-7.958;2023-03-23T08:10:52;97232.16;;;11.29;88.25
61035;BME280;46916;40.564;-7.958;2023-03-23T08:13:16;97239.19;;;11.29;87.98
61035;BME280;46916;40.564;-7.958;2023-03-23T08:15:22;97246.91;;;11.30;88.14
61035;BME280;46916;40.564;-7.958;2023-03-23T08:17:26;97250.38;;;11.31;88.47
61035;BME280;46916;40.564;-7.958;2023-03-23T08:19:45;97240.97;;;11.38;88.33
61035;BME280;46916;40.564;-7.958;2023-03-23T08:22:10;97247.88;;;11.39;87.97
61035;BME280;46916;40.564;-7.958;2023-03-23T08:24:43;97260.16;;;11.38;88.06
61035;BME280;46916;40.564;-7.958;2023-03-23T08:26:57;97254.91;;;11.38;87.84
61035;BME280;46916;40.564;-7.958;2023-03-23T08:29:07;97243.31;;;11.41;88.13
61035;BME280;46916;40.564;-7.958;2023-03-23T08:31:17;97241.41;;;11.43;87.47
61035;BME280;46916;40.564;-7.958;2023-03-23T08:33:38;97253.25;;;11.47;87.79
61035;BME280;46916;40.564;-7.958;2023-03-23T08:35:57;97254.22;;;11.56;87.54
61035;BME280;46916;40.564;-7.958;2023-03-23T08:38:17;97250.59;;;11.66;87.63
61035;BME280;46916;40.564;-7.958;2023-03-23T08:40:47;97263.28;;;11.90;87.53
61035;BME280;46916;40.564;-7.958;2023-03-23T08:43:09;97269.31;;;12.10;86.94
61035;BME280;46916;40.564;-7.958;2023-03-23T08:45:28;97259.91;;;12.18;86.11
61035;BME280;46916;40.564;-7.958;2023-03-23T08:47:44;97254.88;;;12.24;86.12
61035;BME280;46916;40.564;-7.958;2023-03-23T08:50:03;97239.44;;;12.21;85.32
61035;BME280;46916;40.564;-7.958;2023-03-23T08:52:20;97237.25;;;12.17;85.73
61035;BME280;46916;40.564;-7.958;2023-03-23T08:54:29;97233.63;;;12.18;85.90
61035;BME280;46916;40.564;-7.958;2023-03-23T08:56:52;97240.44;;;12.10;86.57
61035;BME280;46916;40.564;-7.958;2023-03-23T08:59:07;97238.91;;;12.18;86.78
61035;BME280;46916;40.564;-7.958;2023-03-23T09:01:27;97241.13;;;12.12;87.08
61035;BME280;46916;40.564;-7.958;2023-03-23T09:03:37;97240.25;;;12.22;87.11
61035;BME280;46916;40.564;-7.958;2023-03-23T09:05:52;97238.56;;;12.30;86.50
61035;BME280;46916;40.564;-7.958;2023-03-23T09:08:07;97257.03;;;12.38;86.18
61035;BME280;46916;40.564;-7.958;2023-03-23T09:10:08;97260.59;;;12.47;85.84
61035;BME280;46916;40.564;-7.958;2023-03-23T09:12:10;97259.34;;;12.51;85.52
61035;BME280;46916;40.564;-7.958;2023-03-23T09:14:11;97263.69;;;12.60;85.51
61035;BME280;46916;40.564;-7.958;2023-03-23T09:16:13;97262.97;;;12.68;84.93
61035;BME280;46916;40.564;-7.958;2023-03-23T09:18:13;97263.22;;;12.75;84.56
61035;BME280;46916;40.564;-7.958;2023-03-23T09:20:17;97277.84;;;12.77;84.24
61035;BME280;46916;40.564;-7.958;2023-03-23T09:22:19;97285.59;;;12.79;83.98
61035;BME280;46916;40.564;-7.958;2023-03-23T09:24:23;97289.06;;;12.79;83.69
61035;BME280;46916;40.564;-7.958;2023-03-23T09:26:25;97289.59;;;12.83;83.79
61035;BME280;46916;40.564;-7.958;2023-03-23T09:28:26;97289.16;;;12.87;83.66
61035;BME280;46916;40.564;-7.958;2023-03-23T09:30:30;97282.78;;;12.90;83.68
61035;BME280;46916;40.564;-7.958;2023-03-23T09:32:32;97287.34;;;12.88;85.28
61035;BME280;46916;40.564;-7.958;2023-03-23T09:34:35;97281.41;;;12.86;85.69
61035;BME280;46916;40.564;-7.958;2023-03-23T09:36:38;97272.84;;;12.84;85.30
61035;BME280;46916;40.564;-7.958;2023-03-23T09:38:39;97274.38;;;12.86;84.84
61035;BME280;46916;40.564;-7.958;2023-03-23T09:40:55;97276.16;;;12.86;85.16
61035;BME280;46916;40.564;-7.958;2023-03-23T09:45:47;97282.47;;;12.93;84.89
61035;BME280;46916;40.564;-7.958;2023-03-23T09:48:03;97290.44;;;13.01;85.57
61035;BME280;46916;40.564;-7.958;2023-03-23T09:50:18;97287.88;;;13.09;84.75
61035;BME280;46916;40.564;-7.958;2023-03-23T09:52:20;97279.78;;;13.21;84.44
61035;BME280;46916;40.564;-7.958;2023-03-23T09:54:29;97270.19;;;13.29;84.16
61035;BME280;46916;40.564;-7.958;2023-03-23T09:56:32;97268.34;;;13.40;83.75
61035;BME280;46916;40.564;-7.958;2023-03-23T09:58:46;97258.84;;;13.47;83.24
61035;BME280;46916;40.564;-7.958;2023-03-23T10:01:01;97266.66;;;13.56;82.98
61035;BME280;46916;40.564;-7.958;2023-03-23T10:03:17;97264.75;;;13.67;82.23
61035;BME280;46916;40.564;-7.958;2023-03-23T10:05:42;97261.22;;;13.76;81.89
61035;BME280;46916;40.564;-7.958;2023-03-23T10:07:43;97265.84;;;13.82;81.77
61035;BME280;46916;40.564;-7.958;2023-03-23T10:09:47;97268.19;;;13.85;81.54
61035;BME280;46916;40.564;-7.958;2023-03-23T10:12:04;97290.06;;;13.85;81.22
61035;BME280;46916;40.564;-7.958;2023-03-23T10:14:37;97284.81;;;13.85;81.10
61035;BME280;46916;40.564;-7.958;2023-03-23T10:16:46;97265.09;;;13.90;80.88
61035;BME280;46916;40.564;-7.958;2023-03-23T10:20:59;97271.13;;;14.08;80.54
61035;BME280;46916;40.564;-7.958;2023-03-23T10:25:23;97291.84;;;14.29;79.45
61035;BME280;46916;40.564;-7.958;2023-03-23T10:27:41;97277.03;;;14.36;79.33
61035;BME280;46916;40.564;-7.958;2023-03-23T10:29:52;97286.22;;;14.50;79.25
61035;BME280;46916;40.564;-7.958;2023-03-23T10:32:09;97285.47;;;14.66;78.83
61035;BME280;46916;40.564;-7.958;2023-03-23T10:34:22;97280.22;;;14.74;78.13
61035;BME280;46916;40.564;-7.958;2023-03-23T10:36:28;97284.63;;;14.73;76.73
61035;BME280;46916;40.564;-7.958;2023-03-23T10:38:38;97285.81;;;14.71;77.20
61035;BME280;46916;40.564;-7.958;2023-03-23T10:40:50;97290.38;;;14.69;76.91
61035;BME280;46916;40.564;-7.958;2023-03-23T10:42:53;97292.38;;;14.67;76.76
61035;BME280;46916;40.564;-7.958;2023-03-23T10:44:56;97292.22;;;14.68;75.95
61035;BME280;46916;40.564;-7.958;2023-03-23T10:47:01;97296.81;;;14.66;76.41
61035;BME280;46916;40.564;-7.958;2023-03-23T10:49:06;97300.59;;;14.64;76.26
61035;BME280;46916;40.564;-7.958;2023-03-23T10:51:11;97290.56;;;14.67;76.22
61035;BME280;46916;40.564;-7.958;2023-03-23T10:53:22;97306.75;;;14.80;75.60
61035;BME280;46916;40.564;-7.958;2023-03-23T10:55:35;97309.13;;;15.00;75.33
61035;BME280;46916;40.564;-7.958;2023-03-23T10:57:40;97313.63;;;15.16;74.93
61035;BME280;46916;40.564;-7.958;2023-03-23T10:59:41;97317.94;;;15.33;74.14
61035;BME280;46916;40.564;-7.958;2023-03-23T11:01:44;97315.00;;;15.44;73.88
61035;BME280;46916;40.564;-7.958;2023-03-23T11:03:49;97308.25;;;15.58;73.06
61035;BME280;46916;40.564;-7.958;2023-03-23T11:05:53;97307.78;;;15.71;72.75
61035;BME280;46916;40.564;-7.958;2023-03-23T11:07:57;97308.13;;;15.76;72.39
61035;BME280;46916;40.564;-7.958;2023-03-23T11:10:16;97318.03;;;15.82;71.94
61035;BME280;46916;40.564;-7.958;2023-03-23T11:12:20;97313.41;;;15.92;71.25
61035;BME280;46916;40.564;-7.958;2023-03-23T11:14:29;97318.69;;;15.92;70.94
61035;BME280;46916;40.564;-7.958;2023-03-23T11:16:32;97319.00;;;15.89;70.33
61035;BME280;46916;40.564;-7.958;2023-03-23T11:20:38;97332.88;;;15.83;69.92
61035;BME280;46916;40.564;-7.958;2023-03-23T11:22:42;97341.59;;;15.83;70.60
61035;BME280;46916;40.564;-7.958;2023-03-23T11:24:45;97333.38;;;15.87;70.63
61035;BME280;46916;40.564;-7.958;2023-03-23T11:26:47;97341.13;;;15.80;69.55
61035;BME280;46916;40.564;-7.958;2023-03-23T11:28:53;97350.69;;;15.73;69.88
61035;BME280;46916;40.564;-7.958;2023-03-23T11:30:57;97342.78;;;15.65;69.99
61035;BME280;46916;40.564;-7.958;2023-03-23T11:33:01;97328.38;;;15.59;70.00
61035;BME280;46916;40.564;-7.958;2023-03-23T11:35:06;97323.44;;;15.56;69.71